Time;durP1;ratioP1;P1;durP2;ratioP2;P2;SDS_P1;SDS_P2;PMS_P1;PMS_P2;Temp;Humidity;BMP_temperature;BMP_pressure;BME280_temperature;BME280_humidity;BME280_pressure;Samples;Min_cycle;Max_cycle;Signal;HPM_P1;HPM_P2
2023/03/23 00:00:47;;;;;;;;;;;;;;;20.32;63.77;98805.78;2077786;28;19933;-59
2023/03/23 00:01:49;;;;;;;;;;;;;;;20.33;63.96;98799.34;2084038;28;20009;-57
2023/03/23 00:02:52;;;;;;;;;;;;;;;20.37;63.64;98802.47;2083504;28;19933;-58
2023/03/23 00:03:53;;;;;;;;;;;;;;;20.35;64.16;98799.97;2081858;28;19932;-58
2023/03/23 00:04:55;;;;;;;;;;;;;;;20.33;64.12;98799.34;2082827;28;20015;-58
2023/03/23 00:05:59;;;;;;;;;;;;;;;20.31;64.23;98801.47;2080653;28;20715;-55
2023/03/23 00:07:02;;;;;;;;;;;;;;;20.31;63.95;98794.19;2075841;28;19943;-56
2023/03/23 00:08:03;;;;;;;;;;;;;;;20.30;64.33;98800.59;2081142;28;19936;-58
2023/03/23 00:09:05;;;;;;;;;;;;;;;20.33;64.15;98803.91;2077825;28;19995;-57
2023/03/23 00:10:06;;;;;;;;;;;;;;;20.30;64.14;98797.09;2078164;28;19933;-57
2023/03/23 00:11:08;;;;;;;;;;;;;;;20.31;64.44;98798.75;2081416;28;19936;-58
2023/03/23 00:12:08;;;;;;;;;;;;;;;20.30;64.16;98800.59;2087233;28;20062;-56
2023/03/23 00:13:11;;;;;;;;;;;;;;;20.33;64.23;98796.66;2079756;28;20370;-58
2023/03/23 00:14:12;;;;;;;;;;;;;;;20.33;64.20;98793.16;2083570;28;19936;-57
2023/03/23 00:15:16;;;;;;;;;;;;;;;20.30;64.30;98797.91;2079300;28;20595;-59
2023/03/23 00:16:17;;;;;;;;;;;;;;;20.32;64.46;98795.03;2083881;28;19936;-57
2023/03/23 00:17:19;;;;;;;;;;;;;;;20.34;64.39;98798.34;2078661;28;19951;-56
2023/03/23 00:18:21;;;;;;;;;;;;;;;20.34;64.38;98798.34;2072876;28;19974;-56
2023/03/23 00:19:23;;;;;;;;;;;;;;;20.34;64.64;98802.88;2081759;28;19928;-57
2023/03/23 00:20:24;;;;;;;;;;;;;;;20.33;64.75;98795.84;2080828;28;19974;-56
2023/03/23 00:21:33;;;;;;;;;;;;;;;20.33;64.51;98803.91;2087745;28;20001;-55
2023/03/23 00:22:37;;;;;;;;;;;;;;;20.30;64.60;98797.91;2086490;28;19935;-55
2023/03/23 00:23:39;;;;;;;;;;;;;;;20.29;64.99;98790.88;2083413;28;20410;-53
2023/03/23 00:24:40;;;;;;;;;;;;;;;20.27;64.63;98794.81;2082431;28;20464;-57
2023/03/23 00:25:41;;;;;;;;;;;;;;;20.29;64.55;98803.53;2069582;28;19954;-57
2023/03/23 00:26:43;;;;;;;;;;;;;;;20.29;64.76;98801.66;2081053;28;19925;-57
2023/03/23 00:27:44;;;;;;;;;;;;;;;20.28;64.97;98797.31;2078981;28;19997;-55
2023/03/23 00:28:46;;;;;;;;;;;;;;;20.28;64.65;98794.63;2082285;28;19929;-57
2023/03/23 00:29:46;;;;;;;;;;;;;;;20.28;64.92;98802.69;2074066;28;19961;-56
2023/03/23 00:30:48;;;;;;;;;;;;;;;20.27;65.04;98802.91;2078285;28;19939;-56
2023/03/23 00:31:50;;;;;;;;;;;;;;;20.27;64.93;98806.41;2081303;28;19928;-55
2023/03/23 00:32:50;;;;;;;;;;;;;;;20.29;65.03;98800.81;2082590;28;19928;-55
2023/03/23 00:33:53;;;;;;;;;;;;;;;20.29;65.04;98801.66;2076632;28;19978;-57
2023/03/23 00:34:54;;;;;;;;;;;;;;;20.29;64.92;98798.13;2067989;28;20040;-57
2023/03/23 00:35:56;;;;;;;;;;;;;;;20.29;64.83;98803.53;2078182;28;19928;-56
2023/03/23 00:36:58;;;;;;;;;;;;;;;20.29;65.22;98800.81;2077660;28;19932;-57
2023/03/23 00:37:59;;;;;;;;;;;;;;;20.29;65.08;98800.81;2079748;28;19978;-56
2023/03/23 00:39:00;;;;;;;;;;;;;;;20.29;65.18;98801.66;2077215;28;19932;-53
2023/03/23 00:40:08;;;;;;;;;;;;;;;20.31;64.83;98796.88;2075012;28;20950;-57
2023/03/23 00:41:11;;;;;;;;;;;;;;;20.29;64.99;98798.97;2077996;28;19937;-54
2023/03/23 00:42:13;;;;;;;;;;;;;;;20.29;65.06;98800.81;2074913;28;19979;-57
2023/03/23 00:43:16;;;;;;;;;;;;;;;20.29;64.95;98798.97;2076755;28;20032;-56
2023/03/23 00:44:17;;;;;;;;;;;;;;;20.30;64.94;98802.47;2077517;28;19970;-55
2023/03/23 00:45:18;;;;;;;;;;;;;;;20.30;65.02;98794.41;2075292;28;20055;-52
2023/03/23 00:46:20;;;;;;;;;;;;;;;20.29;65.12;98795.44;2086422;28;19924;-55
2023/03/23 00:47:21;;;;;;;;;;;;;;;20.26;65.11;98794.00;2079004;28;19971;-52
2023/03/23 00:48:23;;;;;;;;;;;;;;;20.27;65.06;98798.34;2085442;28;19935;-56
2023/03/23 00:49:25;;;;;;;;;;;;;;;20.25;65.34;98797.75;2080225;28;20322;-54
2023/03/23 00:50:27;;;;;;;;;;;;;;;20.27;65.11;98802.91;2076481;28;19933;-56
2023/03/23 00:51:27;;;;;;;;;;;;;;;20.27;65.26;98803.72;2078520;28;20512;-57
2023/03/23 00:52:29;;;;;;;;;;;;;;;20.26;65.39;98793.16;2076099;28;19928;-57
2023/03/23 00:53:29;;;;;;;;;;;;;;;20.28;65.38;98800.00;2081444;28;20026;-52
2023/03/23 00:54:31;;;;;;;;;;;;;;;20.27;65.06;98798.34;2080050;28;20804;-56
2023/03/23 00:55:33;;;;;;;;;;;;;;;20.26;65.29;98798.56;2082254;28;19942;-55
2023/03/23 00:56:35;;;;;;;;;;;;;;;20.27;65.43;98801.03;2078461;28;19933;-53
2023/03/23 00:57:35;;;;;;;;;;;;;;;20.25;65.24;98795.03;2080726;28;20010;-56
2023/03/23 00:58:37;;;;;;;;;;;;;;;20.27;65.22;98800.19;2074203;28;19933;-56
2023/03/23 00:59:37;;;;;;;;;;;;;;;20.24;65.33;98800.63;2079750;28;19982;-57
2023/03/23 01:00:39;;;;;;;;;;;;;;;20.23;65.57;98796.28;2071296;28;20021;-59
2023/03/23 01:01:40;;;;;;;;;;;;;;;20.26;65.36;98803.94;2076973;28;20023;-59
2023/03/23 01:02:44;;;;;;;;;;;;;;;20.26;65.24;98803.94;2076729;28;19936;-56
2023/03/23 01:03:45;;;;;;;;;;;;;;;20.24;65.42;98804.13;2076957;28;21095;-57
2023/03/23 01:04:51;;;;;;;;;;;;;;;20.23;65.41;98797.13;2079083;28;19928;-58
2023/03/23 01:05:54;;;;;;;;;;;;;;;20.20;65.76;98797.53;2081581;28;19933;-58
2023/03/23 01:06:56;;;;;;;;;;;;;;;20.20;65.63;98800.22;2081640;27;20399;-56
2023/03/23 01:07:57;;;;;;;;;;;;;;;20.17;65.77;98797.97;2082572;28;19936;-56
2023/03/23 01:08:58;;;;;;;;;;;;;;;20.18;65.51;98799.59;2077009;28;20165;-56
2023/03/23 01:10:00;;;;;;;;;;;;;;;20.19;65.64;98795.03;2078164;28;20425;-56
2023/03/23 01:11:04;;;;;;;;;;;;;;;20.17;65.39;98789.88;2078609;28;19931;-56
2023/03/23 01:12:07;;;;;;;;;;;;;;;20.17;65.77;98792.56;2078582;28;19928;-57
2023/03/23 01:13:07;;;;;;;;;;;;;;;20.16;65.81;98790.91;2086112;28;19929;-57
2023/03/23 01:14:09;;;;;;;;;;;;;;;20.16;65.47;98800.84;2081258;28;20009;-59
2023/03/23 01:15:12;;;;;;;;;;;;;;;20.15;65.67;98786.56;2082660;28;19981;-57
2023/03/23 01:16:14;;;;;;;;;;;;;;;20.14;65.80;98786.75;2082848;28;20525;-58
2023/03/23 01:17:15;;;;;;;;;;;;;;;20.13;65.70;98785.94;2083264;28;19932;-57
2023/03/23 01:18:16;;;;;;;;;;;;;;;20.14;65.60;98790.28;2080667;28;20286;-56
2023/03/23 01:19:18;;;;;;;;;;;;;;;20.14;65.54;98786.75;2081824;28;19936;-58
2023/03/23 01:20:20;;;;;;;;;;;;;;;20.12;65.72;98781.59;2082790;28;19932;-59
2023/03/23 01:21:22;;;;;;;;;;;;;;;20.12;65.48;98784.28;2080704;28;19924;-56
2023/03/23 01:22:22;;;;;;;;;;;;;;;20.11;65.56;98788.00;2080177;28;20370;-62
2023/03/23 01:23:24;;;;;;;;;;;;;;;20.11;65.50;98782.63;2076158;28;19982;-56
2023/03/23 01:24:24;;;;;;;;;;;;;;;20.11;65.33;98788.00;2078843;28;19994;-56
2023/03/23 01:25:25;;;;;;;;;;;;;;;20.11;65.45;98781.78;2076608;28;19928;-58
2023/03/23 01:26:27;;;;;;;;;;;;;;;20.09;65.50;98782.03;2080571;28;19933;-56
2023/03/23 01:27:28;;;;;;;;;;;;;;;20.10;65.43;98780.97;2079536;28;19940;-57
2023/03/23 01:28:29;;;;;;;;;;;;;;;20.10;65.28;98783.66;2084516;28;19962;-57
2023/03/23 01:29:30;;;;;;;;;;;;;;;20.08;65.69;98773.09;2084076;28;19929;-56
2023/03/23 01:30:31;;;;;;;;;;;;;;;20.07;65.33;98774.13;2081357;28;19924;-59
2023/03/23 01:31:32;;;;;;;;;;;;;;;20.07;65.36;98778.69;2084777;28;19928;-58
2023/03/23 01:32:33;;;;;;;;;;;;;;;20.06;65.55;98775.19;2082194;28;21000;-59
2023/03/23 01:33:35;;;;;;;;;;;;;;;20.07;65.57;98770.63;2077842;28;19935;-58
2023/03/23 01:34:36;;;;;;;;;;;;;;;20.05;65.47;98770.81;2076087;28;20737;-56
2023/03/23 01:35:39;;;;;;;;;;;;;;;20.05;65.42;98768.13;2080762;28;20002;-56
2023/03/23 01:36:41;;;;;;;;;;;;;;;20.06;65.36;98768.97;2080024;28;25000;-54
2023/03/23 01:37:41;;;;;;;;;;;;;;;20.06;65.30;98766.28;2077638;28;19932;-57
2023/03/23 01:38:44;;;;;;;;;;;;;;;20.04;65.62;98760.28;2081285;28;19959;-58
2023/03/23 01:39:45;;;;;;;;;;;;;;;20.04;65.65;98763.78;2083713;28;19933;-56
2023/03/23 01:40:46;;;;;;;;;;;;;;;20.03;65.52;98762.16;2078107;28;19939;-56
2023/03/23 01:41:47;;;;;;;;;;;;;;;20.03;65.36;98759.44;2078151;28;20967;-55
2023/03/23 01:42:48;;;;;;;;;;;;;;;20.05;65.56;98765.44;2077609;28;19954;-53
2023/03/23 01:43:57;;;;;;;;;;;;;;;20.03;65.47;98758.59;2079092;28;19935;-56
2023/03/23 01:45:24;;;;;;;;;;;;;;;20.02;65.58;98757.78;2080922;28;20655;-56
2023/03/23 01:46:25;;;;;;;;;;;;;;;20.02;65.34;98763.16;2082400;28;20041;-55
2023/03/23 01:47:26;;;;;;;;;;;;;;;20.00;65.55;98753.63;2085149;28;19951;-56
2023/03/23 01:48:30;;;;;;;;;;;;;;;20.00;65.90;98762.56;2084051;28;19961;-56
2023/03/23 01:49:33;;;;;;;;;;;;;;;20.00;65.90;98754.50;2079162;28;20010;-54
2023/03/23 01:50:37;;;;;;;;;;;;;;;20.00;65.61;98754.50;2081624;28;19994;-56
2023/03/23 01:51:42;;;;;;;;;;;;;;;19.99;65.38;98746.63;2084031;28;19977;-55
2023/03/23 01:52:44;;;;;;;;;;;;;;;20.00;65.80;98753.63;2076735;28;19943;-56
2023/03/23 01:53:46;;;;;;;;;;;;;;;19.97;65.68;98749.50;2078004;28;19940;-55
2023/03/23 01:54:49;;;;;;;;;;;;;;;20.00;65.87;98754.50;2079453;28;19940;-56
2023/03/23 01:55:52;;;;;;;;;;;;;;;20.00;65.87;98753.63;2074635;28;20277;-57
2023/03/23 01:56:56;;;;;;;;;;;;;;;20.00;65.72;98745.56;2079154;28;19932;-57
2023/03/23 01:57:57;;;;;;;;;;;;;;;19.99;65.87;98752.00;2078626;28;20447;-59
2023/03/23 01:58:58;;;;;;;;;;;;;;;20.00;66.18;98750.94;2081373;28;19928;-56
2023/03/23 02:00:06;;;;;;;;;;;;;;;19.98;66.17;98753.03;2085118;28;20455;-59
2023/03/23 02:01:11;;;;;;;;;;;;;;;19.96;65.88;98744.34;2082364;28;19929;-59
2023/03/23 02:02:12;;;;;;;;;;;;;;;19.96;66.33;98747.03;2081775;28;19924;-56
2023/03/23 02:03:16;;;;;;;;;;;;;;;19.95;66.11;98740.81;2083460;28;19924;-59
2023/03/23 02:04:17;;;;;;;;;;;;;;;19.96;66.34;98738.97;2078843;28;20351;-58
2023/03/23 02:05:22;;;;;;;;;;;;;;;19.95;66.23;98748.91;2076311;28;19940;-57
2023/03/23 02:06:23;;;;;;;;;;;;;;;19.94;66.19;98747.22;2077790;28;20026;-59
2023/03/23 02:07:26;;;;;;;;;;;;;;;19.94;65.98;98741.03;2078596;28;19928;-58
2023/03/23 02:08:28;;;;;;;;;;;;;;;19.93;65.76;98742.91;2080067;28;20358;-57
2023/03/23 02:09:30;;;;;;;;;;;;;;;19.93;65.71;98744.75;2078205;28;19935;-60
2023/03/23 02:10:31;;;;;;;;;;;;;;;19.92;65.93;98745.78;2076374;28;19992;-56
2023/03/23 02:11:32;;;;;;;;;;;;;;;19.90;65.93;98743.31;2076475;28;20872;-57
2023/03/23 02:12:33;;;;;;;;;;;;;;;19.91;65.81;98738.75;2077714;28;20015;-58
2023/03/23 02:13:35;;;;;;;;;;;;;;;19.90;65.99;98737.94;2073134;28;19935;-56
2023/03/23 02:14:35;;;;;;;;;;;;;;;19.91;66.20;98749.53;2078699;28;22106;-58
2023/03/23 02:15:41;;;;;;;;;;;;;;;19.91;66.18;98741.44;2079624;28;19974;-56
2023/03/23 02:16:44;;;;;;;;;;;;;;;19.89;66.07;98736.25;2080008;28;20444;-57
2023/03/23 02:17:51;;;;;;;;;;;;;;;19.90;66.07;98737.09;2077045;28;19937;-56
2023/03/23 02:18:58;;;;;;;;;;;;;;;19.90;65.73;98732.56;2077658;28;21167;-57
2023/03/23 02:20:09;;;;;;;;;;;;;;;19.89;65.66;98735.44;2076800;28;19936;-58
2023/03/23 02:21:26;;;;;;;;;;;;;;;19.90;66.00;98737.09;2080944;28;19932;-56
2023/03/23 02:22:43;;;;;;;;;;;;;;;19.89;66.09;98738.13;2072804;28;19929;-57
2023/03/23 02:23:59;;;;;;;;;;;;;;;19.87;65.71;98738.34;2083377;28;19932;-55
2023/03/23 02:25:13;;;;;;;;;;;;;;;19.88;65.97;98737.31;2080018;28;19949;-57
2023/03/23 02:26:27;;;;;;;;;;;;;;;19.89;65.64;98735.44;2077766;28;19932;-58
2023/03/23 02:27:47;;;;;;;;;;;;;;;19.88;65.80;98733.78;2082216;28;20590;-56
2023/03/23 02:28:56;;;;;;;;;;;;;;;19.86;66.06;98734.84;2078110;28;19962;-57
2023/03/23 02:30:10;;;;;;;;;;;;;;;19.86;65.83;98734.84;2072913;28;20085;-54
2023/03/23 02:31:18;;;;;;;;;;;;;;;19.86;65.94;98733.97;2081594;28;19986;-56
2023/03/23 02:32:40;;;;;;;;;;;;;;;19.83;65.74;98735.22;2086045;28;19964;-55
2023/03/23 02:33:46;;;;;;;;;;;;;;;19.85;65.91;98732.34;2079576;28;19932;-53
2023/03/23 02:34:50;;;;;;;;;;;;;;;19.84;65.83;98734.22;2085464;28;19975;-56
2023/03/23 02:35:54;;;;;;;;;;;;;;;19.83;65.97;98729.84;2081070;28;19933;-57
2023/03/23 02:36:59;;;;;;;;;;;;;;;19.84;65.94;98731.53;2081079;28;19932;-56
2023/03/23 02:38:01;;;;;;;;;;;;;;;19.82;65.80;98724.69;2080455;28;19992;-56
2023/03/23 02:39:05;;;;;;;;;;;;;;;19.81;65.94;98725.75;2060377;28;20082;-57
2023/03/23 02:40:08;;;;;;;;;;;;;;;19.81;66.16;98733.81;2075370;28;19941;-57
2023/03/23 02:41:11;;;;;;;;;;;;;;;19.81;65.75;98726.56;2075613;28;19980;-55
2023/03/23 02:42:14;;;;;;;;;;;;;;;19.80;66.16;98724.88;2081565;28;19932;-53
2023/03/23 02:43:16;;;;;;;;;;;;;;;19.79;66.11;98725.94;2077452;28;19932;-56
2023/03/23 02:44:17;;;;;;;;;;;;;;;19.79;65.83;98730.50;2083371;28;19979;-56
2023/03/23 02:45:21;;;;;;;;;;;;;;;19.79;65.90;98730.50;2078075;28;19925;-54
2023/03/23 02:46:22;;;;;;;;;;;;;;;19.80;66.05;98730.28;2083128;28;19932;-56
2023/03/23 02:47:26;;;;;;;;;;;;;;;19.79;65.93;98731.31;2074886;28;19929;-56
2023/03/23 02:48:29;;;;;;;;;;;;;;;19.79;65.68;98734.00;2086055;28;20410;-54
2023/03/23 02:49:34;;;;;;;;;;;;;;;19.78;65.88;98732.38;2084539;28;19925;-57
2023/03/23 02:50:35;;;;;;;;;;;;;;;19.80;65.75;98730.28;2081009;28;19981;-57
2023/03/23 02:51:37;;;;;;;;;;;;;;;19.79;66.11;98731.31;2076424;28;19936;-58
2023/03/23 02:52:40;;;;;;;;;;;;;;;19.78;65.92;98731.50;2078712;28;20444;-59
2023/03/23 02:53:43;;;;;;;;;;;;;;;19.79;65.81;98735.88;2078730;28;19929;-59
2023/03/23 02:54:45;;;;;;;;;;;;;;;19.77;65.83;98729.88;2080959;28;20379;-55
2023/03/23 02:55:48;;;;;;;;;;;;;;;19.76;65.62;98728.22;2078001;28;19932;-57
2023/03/23 02:56:50;;;;;;;;;;;;;;;19.76;65.88;98729.03;2079658;28;20023;-57
2023/03/23 02:57:53;;;;;;;;;;;;;;;19.77;66.04;98737.94;2079267;28;19933;-60
2023/03/23 02:58:54;;;;;;;;;;;;;;;19.75;65.80;98732.78;2079528;28;19986;-58
2023/03/23 02:59:55;;;;;;;;;;;;;;;19.74;66.20;98733.81;2081494;28;19924;-59
2023/03/23 03:00:56;;;;;;;;;;;;;;;19.74;65.95;98736.50;2080896;28;19936;-59
2023/03/23 03:02:07;;;;;;;;;;;;;;;19.74;66.05;98731.09;2083205;28;20526;-55
2023/03/23 03:03:12;;;;;;;;;;;;;;;19.73;65.91;98725.94;2082383;28;19973;-59
2023/03/23 03:04:15;;;;;;;;;;;;;;;19.74;66.23;98728.41;2081551;28;20371;-58
2023/03/23 03:05:20;;;;;;;;;;;;;;;19.75;66.05;98723.84;2078827;28;20829;-57
2023/03/23 03:06:26;;;;;;;;;;;;;;;19.74;65.86;98732.97;2083121;28;19928;-59
2023/03/23 03:07:40;;;;;;;;;;;;;;;19.73;66.08;98729.47;2080151;28;19933;-57
2023/03/23 03:08:46;;;;;;;;;;;;;;;19.74;65.66;98732.97;2080960;28;19932;-58
2023/03/23 03:09:48;;;;;;;;;;;;;;;19.72;65.96;98730.47;2071962;28;19933;-58
2023/03/23 03:10:53;;;;;;;;;;;;;;;19.72;66.06;98725.09;2075289;28;19933;-55
2023/03/23 03:11:56;;;;;;;;;;;;;;;19.72;66.31;98729.66;2076281;28;20603;-56
2023/03/23 03:13:01;;;;;;;;;;;;;;;19.71;66.14;98731.53;2076533;28;20341;-59
2023/03/23 03:14:04;;;;;;;;;;;;;;;19.70;65.91;98729.88;2080971;28;19976;-59
2023/03/23 03:15:10;;;;;;;;;;;;;;;19.70;66.26;98724.50;2080169;28;20006;-59
2023/03/23 03:16:16;;;;;;;;;;;;;;;19.70;66.17;98729.88;2077745;28;19958;-58
2023/03/23 03:17:22;;;;;;;;;;;;;;;19.70;66.12;98729.88;2079062;28;19932;-57
2023/03/23 03:18:24;;;;;;;;;;;;;;;19.69;66.18;98740.84;2075243;28;19928;-56
2023/03/23 03:19:27;;;;;;;;;;;;;;;19.69;66.10;98728.22;2072662;28;19928;-57
2023/03/23 03:20:31;;;;;;;;;;;;;;;19.68;66.27;98729.25;2076795;28;19924;-58
2023/03/23 03:21:36;;;;;;;;;;;;;;;19.68;66.21;98739.19;2078844;28;19929;-56
2023/03/23 03:22:38;;;;;;;;;;;;;;;19.68;66.14;98736.50;2080966;28;19932;-55
2023/03/23 03:23:41;;;;;;;;;;;;;;;19.67;66.14;98735.69;2077779;28;20017;-57
2023/03/23 03:24:43;;;;;;;;;;;;;;;19.68;65.89;98734.63;2076906;28;21031;-55
2023/03/23 03:25:47;;;;;;;;;;;;;;;19.67;66.06;98735.69;2072208;28;19933;-56
2023/03/23 03:26:50;;;;;;;;;;;;;;;19.66;66.04;98742.09;2080418;28;20128;-58
2023/03/23 03:27:52;;;;;;;;;;;;;;;19.68;66.14;98740.03;2075260;28;19940;-59
2023/03/23 03:28:53;;;;;;;;;;;;;;;19.69;65.98;98730.06;2080373;28;20005;-55
2023/03/23 03:29:58;;;;;;;;;;;;;;;19.69;66.13;98732.78;2078984;28;19982;-58
2023/03/23 03:31:02;;;;;;;;;;;;;;;19.69;66.01;98733.59;2076458;28;19929;-58
2023/03/23 03:32:05;;;;;;;;;;;;;;;19.66;66.17;98735.88;2078346;28;20005;-60
2023/03/23 03:33:07;;;;;;;;;;;;;;;19.64;66.32;98734.22;2080175;28;19932;-57
2023/03/23 03:34:08;;;;;;;;;;;;;;;19.66;66.38;98741.25;2081436;28;19928;-56
2023/03/23 03:35:10;;;;;;;;;;;;;;;19.65;66.30;98735.03;2079270;28;19928;-56
2023/03/23 03:36:16;;;;;;;;;;;;;;;19.65;66.24;98732.34;2083552;28;20995;-56
2023/03/23 03:37:20;;;;;;;;;;;;;;;19.63;65.94;98737.09;2079373;28;20565;-57
2023/03/23 03:38:21;;;;;;;;;;;;;;;19.63;66.27;98732.53;2081613;28;20006;-59
2023/03/23 03:39:23;;;;;;;;;;;;;;;19.63;65.97;98732.53;2073834;28;20014;-56
2023/03/23 03:40:23;;;;;;;;;;;;;;;19.62;66.26;98728.19;2082840;28;20338;-56
2023/03/23 03:41:25;;;;;;;;;;;;;;;19.63;66.27;98731.72;2081249;28;19928;-55
2023/03/23 03:42:25;;;;;;;;;;;;;;;19.64;66.23;98738.75;2083883;28;19940;-59
2023/03/23 03:43:27;;;;;;;;;;;;;;;19.61;66.15;98734.63;2081256;28;20436;-55
2023/03/23 03:44:28;;;;;;;;;;;;;;;19.61;66.36;98728.38;2083535;28;19924;-57
2023/03/23 03:45:29;;;;;;;;;;;;;;;19.60;66.08;98738.34;2080130;28;19928;-59
2023/03/23 03:46:30;;;;;;;;;;;;;;;19.60;66.36;98737.50;2085802;28;19993;-57
2023/03/23 03:47:32;;;;;;;;;;;;;;;19.58;66.19;98728.81;2079159;28;19940;-58
2023/03/23 03:48:34;;;;;;;;;;;;;;;19.58;66.33;98736.88;2081891;28;19929;-59
2023/03/23 03:49:35;;;;;;;;;;;;;;;19.58;66.21;98732.31;2078385;28;20386;-56
2023/03/23 03:50:37;;;;;;;;;;;;;;;19.58;66.15;98739.56;2081182;28;21238;-58
2023/03/23 03:51:40;;;;;;;;;;;;;;;19.57;66.02;98738.75;2079650;28;19929;-55
2023/03/23 03:52:41;;;;;;;;;;;;;;;19.58;66.00;98732.31;2078156;28;19932;-57
2023/03/23 03:53:42;;;;;;;;;;;;;;;19.58;66.05;98734.19;2081882;28;20022;-57
2023/03/23 03:54:43;;;;;;;;;;;;;;;19.58;66.31;98736.88;2083683;28;19939;-56
2023/03/23 03:55:45;;;;;;;;;;;;;;;19.58;66.34;98739.56;2080580;28;21149;-57
2023/03/23 03:56:46;;;;;;;;;;;;;;;19.56;65.93;98734.41;2086817;28;19963;-57
2023/03/23 03:57:47;;;;;;;;;;;;;;;19.56;66.29;98737.09;2075928;28;19937;-58
2023/03/23 03:58:49;;;;;;;;;;;;;;;19.56;65.99;98736.28;2077554;28;19928;-56
2023/03/23 03:59:50;;;;;;;;;;;;;;;19.54;65.84;98733.78;2082217;28;19937;-58
2023/03/23 04:00:52;;;;;;;;;;;;;;;19.55;66.07;98735.44;2077009;28;19928;-57
2023/03/23 04:01:54;;;;;;;;;;;;;;;19.56;66.17;98737.09;2079284;28;19936;-57
2023/03/23 04:02:55;;;;;;;;;;;;;;;19.56;65.95;98730.91;2085889;28;20373;-60
2023/03/23 04:03:56;;;;;;;;;;;;;;;19.55;66.17;98730.03;2084011;28;20516;-59
2023/03/23 04:04:58;;;;;;;;;;;;;;;19.56;66.09;98728.22;2085810;28;19935;-58
2023/03/23 04:06:00;;;;;;;;;;;;;;;19.56;66.04;98736.28;2082551;28;19929;-56
2023/03/23 04:07:02;;;;;;;;;;;;;;;19.56;66.36;98730.91;2083432;28;19932;-59
2023/03/23 04:08:04;;;;;;;;;;;;;;;19.56;66.57;98731.72;2082840;28;20883;-56
2023/03/23 04:09:05;;;;;;;;;;;;;;;19.56;66.41;98729.03;2081412;28;19924;-59
2023/03/23 04:10:08;;;;;;;;;;;;;;;19.57;66.37;98732.53;2078735;28;19939;-56
2023/03/23 04:11:08;;;;;;;;;;;;;;;19.55;66.16;98730.03;2080906;28;19936;-57
2023/03/23 04:12:10;;;;;;;;;;;;;;;19.55;66.16;98726.53;2084996;28;19933;-59
2023/03/23 04:13:10;;;;;;;;;;;;;;;19.54;66.14;98724.88;2079829;28;20943;-58
2023/03/23 04:14:12;;;;;;;;;;;;;;;19.54;66.08;98728.41;2079497;28;19933;-59
2023/03/23 04:15:12;;;;;;;;;;;;;;;19.54;66.53;98730.28;2078968;28;19968;-57
2023/03/23 04:16:16;;;;;;;;;;;;;;;19.54;66.12;98732.97;2079767;28;20380;-56
2023/03/23 04:17:17;;;;;;;;;;;;;;;19.54;66.18;98735.66;2080515;28;19975;-59
2023/03/23 04:18:19;;;;;;;;;;;;;;;19.53;66.66;98732.13;2080380;28;19932;-57
2023/03/23 04:19:19;;;;;;;;;;;;;;;19.54;66.04;98738.34;2086669;28;19925;-56
2023/03/23 04:20:21;;;;;;;;;;;;;;;19.51;66.42;98736.88;2083540;28;19959;-53
2023/03/23 04:21:21;;;;;;;;;;;;;;;19.52;66.40;98732.34;2083697;28;19982;-58
2023/03/23 04:22:29;;;;;;;;;;;;;;;19.52;66.66;98732.34;2085096;28;20379;-60
2023/03/23 04:23:33;;;;;;;;;;;;;;;19.51;66.41;98728.00;2082907;28;21014;-57
2023/03/23 04:24:35;;;;;;;;;;;;;;;19.50;66.10;98737.09;2077945;28;19975;-56
2023/03/23 04:25:36;;;;;;;;;;;;;;;19.50;66.06;98734.41;2082271;28;19933;-55
2023/03/23 04:26:39;;;;;;;;;;;;;;;19.50;65.99;98734.41;2081039;28;19935;-56
2023/03/23 04:27:43;;;;;;;;;;;;;;;19.47;66.21;98734.81;2081087;28;19928;-55
2023/03/23 04:28:44;;;;;;;;;;;;;;;19.48;66.29;98733.78;2083134;28;19929;-55
2023/03/23 04:29:49;;;;;;;;;;;;;;;19.48;65.93;98740.00;2080056;28;19943;-58
2023/03/23 04:30:52;;;;;;;;;;;;;;;19.47;66.09;98732.13;2078675;28;20452;-55
2023/03/23 04:31:55;;;;;;;;;;;;;;;19.47;66.29;98734.81;2082322;28;19924;-57
2023/03/23 04:32:56;;;;;;;;;;;;;;;19.48;66.20;98739.19;2087036;28;19928;-59
2023/03/23 04:33:59;;;;;;;;;;;;;;;19.47;66.33;98740.19;2082617;28;19939;-59
2023/03/23 04:35:01;;;;;;;;;;;;;;;19.47;66.18;98738.31;2085272;28;19928;-58
2023/03/23 04:36:02;;;;;;;;;;;;;;;19.47;66.65;98742.88;2082486;28;19982;-58
2023/03/23 04:37:03;;;;;;;;;;;;;;;19.45;66.41;98740.41;2082900;28;20495;-56
2023/03/23 04:38:07;;;;;;;;;;;;;;;19.46;66.43;98744.75;2081278;28;20551;-57
2023/03/23 04:39:09;;;;;;;;;;;;;;;19.46;65.97;98746.63;2085259;28;19936;-56
2023/03/23 04:40:12;;;;;;;;;;;;;;;19.45;66.36;98745.78;2074922;28;20474;-56
2023/03/23 04:41:14;;;;;;;;;;;;;;;19.43;66.20;98745.16;2078765;28;20017;-54
2023/03/23 04:42:14;;;;;;;;;;;;;;;19.45;66.12;98755.72;2080780;28;19952;-56
2023/03/23 04:43:16;;;;;;;;;;;;;;;19.45;66.03;98747.66;2081631;28;19937;-56
2023/03/23 04:44:17;;;;;;;;;;;;;;;19.45;66.48;98753.03;2078853;28;20562;-56
2023/03/23 04:45:21;;;;;;;;;;;;;;;19.43;65.88;98755.94;2076488;28;19929;-58
2023/03/23 04:46:21;;;;;;;;;;;;;;;19.43;66.34;98759.44;2077821;28;19983;-55
2023/03/23 04:47:23;;;;;;;;;;;;;;;19.42;66.33;98757.78;2080750;28;20453;-56
2023/03/23 04:48:23;;;;;;;;;;;;;;;19.40;66.42;98757.16;2080730;28;19963;-58
2023/03/23 04:49:25;;;;;;;;;;;;;;;19.40;66.38;98756.34;2078693;28;19928;-55
2023/03/23 04:50:27;;;;;;;;;;;;;;;19.40;66.33;98754.47;2081313;28;19932;-56
2023/03/23 04:51:31;;;;;;;;;;;;;;;19.41;66.24;98760.66;2076285;28;19953;-57
2023/03/23 04:52:31;;;;;;;;;;;;;;;19.42;66.35;98762.34;2078752;28;20294;-57
2023/03/23 04:53:34;;;;;;;;;;;;;;;19.40;66.13;98759.84;2076730;28;19932;-53
2023/03/23 04:54:34;;;;;;;;;;;;;;;19.37;66.15;98754.88;2078186;28;19971;-58
2023/03/23 04:55:37;;;;;;;;;;;;;;;19.38;66.40;98750.31;2079235;28;19929;-59
2023/03/23 04:56:37;;;;;;;;;;;;;;;19.39;66.28;98758.22;2080214;28;20941;-55
2023/03/23 04:57:40;;;;;;;;;;;;;;;19.37;66.41;98757.56;2084754;28;19929;-57
2023/03/23 04:58:40;;;;;;;;;;;;;;;19.39;66.11;98758.22;2081223;28;19939;-55
2023/03/23 04:59:43;;;;;;;;;;;;;;;19.41;66.19;98753.44;2083720;28;20383;-57
2023/03/23 05:00:49;;;;;;;;;;;;;;;19.41;66.25;98756.13;2078329;28;21299;-55
2023/03/23 05:01:50;;;;;;;;;;;;;;;19.43;66.06;98759.44;2083339;28;19979;-55
2023/03/23 05:02:51;;;;;;;;;;;;;;;19.45;66.22;98758.41;2079613;28;19933;-56
2023/03/23 05:03:53;;;;;;;;;;;;;;;19.50;66.23;98758.59;2083575;28;20170;-59
2023/03/23 05:04:53;;;;;;;;;;;;;;;19.53;66.47;98761.72;2081186;28;19929;-56
2023/03/23 05:05:55;;;;;;;;;;;;;;;19.58;66.07;98756.53;2082853;28;20442;-59
2023/03/23 05:06:55;;;;;;;;;;;;;;;19.61;66.21;98761.53;2079605;28;20102;-56
2023/03/23 05:07:57;;;;;;;;;;;;;;;19.64;66.28;98761.13;2083095;28;20066;-58
2023/03/23 05:08:59;;;;;;;;;;;;;;;19.68;66.22;98756.16;2082485;28;20010;-57
2023/03/23 05:10:00;;;;;;;;;;;;;;;19.71;65.86;98755.75;2069720;28;20011;-57
2023/03/23 05:11:01;;;;;;;;;;;;;;;19.75;65.97;98753.47;2079631;28;19932;-56
2023/03/23 05:12:06;;;;;;;;;;;;;;;19.79;66.15;98766.31;2081859;28;19928;-57
2023/03/23 05:13:07;;;;;;;;;;;;;;;19.81;66.34;98760.72;2078044;28;19985;-56
2023/03/23 05:14:08;;;;;;;;;;;;;;;19.83;66.18;98759.44;2084227;28;19982;-57
2023/03/23 05:15:09;;;;;;;;;;;;;;;19.86;66.08;98761.75;2083219;28;20583;-57
2023/03/23 05:16:11;;;;;;;;;;;;;;;19.93;65.62;98760.91;2080538;28;19939;-57
2023/03/23 05:17:16;;;;;;;;;;;;;;;19.97;66.06;98762.13;2082486;28;19928;-56
2023/03/23 05:18:20;;;;;;;;;;;;;;;20.02;65.75;98762.34;2082883;28;19933;-54
2023/03/23 05:19:20;;;;;;;;;;;;;;;20.01;65.79;98760.69;2078432;28;19928;-57
2023/03/23 05:20:21;;;;;;;;;;;;;;;20.01;66.01;98758.81;2077808;28;19932;-58
2023/03/23 05:21:22;;;;;;;;;;;;;;;20.02;65.81;98763.16;2084232;28;19929;-55
2023/03/23 05:22:23;;;;;;;;;;;;;;;20.03;65.79;98762.16;2079277;28;19935;-55
2023/03/23 05:23:25;;;;;;;;;;;;;;;20.03;65.74;98762.16;2082407;28;20026;-55
2023/03/23 05:24:30;;;;;;;;;;;;;;;20.03;65.84;98764.84;2087509;28;19932;-56
2023/03/23 05:25:36;;;;;;;;;;;;;;;20.06;65.87;98760.91;2077355;28;19925;-55
2023/03/23 05:26:36;;;;;;;;;;;;;;;20.07;65.53;98762.53;2080618;28;19936;-58
2023/03/23 05:27:38;;;;;;;;;;;;;;;20.10;65.88;98770.19;2078151;28;20032;-56